createdAt,value
2023-02-28T00:04:31.535Z,99844.30
2023-02-28T00:14:56.429Z,99846.89
2023-02-28T00:25:23.770Z,99859.87
2023-02-28T00:35:49.091Z,99861.67
2023-02-28T00:46:13.724Z,99864.18
2023-02-28T00:56:38.179Z,99869.92
2023-02-28T01:07:02.429Z,99864.59
2023-02-28T01:17:26.969Z,99858.49
2023-02-28T01:27:51.741Z,99852.48
2023-02-28T01:38:22.658Z,99845.48
2023-02-28T01:48:52.914Z,99842.40
2023-02-28T01:59:26.117Z,99838.14
2023-02-28T02:09:50.446Z,99844.29
2023-02-28T02:20:58.129Z,99840.17
2023-02-28T02:31:57.031Z,99834.25
2023-02-28T02:42:28.535Z,99834.80
2023-02-28T02:52:56.582Z,99835.23
2023-02-28T03:03:31.478Z,99835.80
2023-02-28T03:14:27.070Z,99842.02
2023-02-28T03:24:58.649Z,99843.73
2023-02-28T03:35:26.879Z,99841.41
2023-02-28T03:45:53.094Z,99840.91
2023-02-28T03:56:20.275Z,99850.46
2023-02-28T04:06:45.666Z,99862.50
2023-02-28T04:17:09.892Z,99867.38
2023-02-28T04:27:34.167Z,99873.64
2023-02-28T04:37:59.101Z,99885.23
2023-02-28T04:48:24.373Z,99891.51
2023-02-28T04:58:49.111Z,99881.79
2023-02-28T05:09:13.339Z,99888.19
2023-02-28T05:19:37.590Z,99891.06
2023-02-28T05:30:03.957Z,99893.54
2023-02-28T05:40:28.934Z,99904.53
2023-02-28T05:50:53.164Z,99913.58
2023-02-28T06:01:34.477Z,99925.81
2023-02-28T06:12:00.548Z,99932.13
2023-02-28T06:22:24.728Z,99942.11
2023-02-28T06:32:49.994Z,99951.56
2023-02-28T06:43:14.371Z,99960.02
2023-02-28T06:53:39.381Z,99963.02
2023-02-28T07:04:03.550Z,99972.11
2023-02-28T07:14:27.803Z,99979.75
2023-02-28T07:24:52.562Z,99985.36
2023-02-28T07:35:17.028Z,99987.36
2023-02-28T07:45:41.314Z,99988.73
2023-02-28T07:56:07.711Z,99989.34
2023-02-28T08:06:32.104Z,99995.33
2023-02-28T08:16:56.364Z,99992.02
2023-02-28T08:27:21.223Z,99997.30
2023-02-28T08:37:48.382Z,99995.84
2023-02-28T08:48:14.094Z,99995.30
2023-02-28T08:58:38.794Z,99997.83
2023-02-28T09:09:04.704Z,99997.17
2023-02-28T09:19:29.541Z,100000.90
2023-02-28T09:29:54.366Z,100000.65
2023-02-28T09:40:21.535Z,99988.89
2023-02-28T09:50:49.258Z,99991.23
2023-02-28T10:01:23.903Z,99994.25
2023-02-28T10:11:53.656Z,99993.58
2023-02-28T10:22:24.920Z,99994.33
2023-02-28T10:32:53.890Z,99993.64
2023-02-28T10:43:23.501Z,99978.86
2023-02-28T10:54:01.528Z,99972.04
2023-02-28T11:04:39.536Z,99959.37
2023-02-28T11:15:07.623Z,99955.89
2023-02-28T11:25:34.773Z,99939.73
2023-02-28T11:36:04.782Z,99931.48
2023-02-28T11:46:38.181Z,99908.04
2023-02-28T11:57:16.869Z,99900.65
2023-02-28T12:07:52.752Z,99896.42
2023-02-28T12:18:35.546Z,99888.95
2023-02-28T12:29:05.983Z,99881.38
2023-02-28T12:39:48.339Z,99879.91
2023-02-28T12:50:15.632Z,99880.66
2023-02-28T13:00:56.865Z,99869.06
2023-02-28T13:11:30.788Z,99866.31
2023-02-28T13:21:56.223Z,99861.28
2023-02-28T13:32:44.145Z,99857.71
2023-02-28T13:43:10.528Z,99854.75
2023-02-28T13:54:02.444Z,99847.13
2023-02-28T14:04:59.106Z,99837.02
2023-02-28T14:15:41.410Z,99824.23
2023-02-28T14:26:20.385Z,99814.94
2023-02-28T14:36:45.432Z,99810.27
2023-02-28T14:47:16.861Z,99810.48
2023-02-28T14:57:51.191Z,99809.00
2023-02-28T15:08:17.209Z,99806.52
2023-02-28T15:18:49.351Z,99809.35
2023-02-28T15:29:15.957Z,99808.60
2023-02-28T15:39:45.067Z,99807.58
2023-02-28T15:50:15.152Z,99809.98
2023-02-28T16:00:39.757Z,99809.77
2023-02-28T16:11:03.990Z,99810.34
2023-02-28T16:21:28.729Z,99817.15
2023-02-28T16:31:53.830Z,99815.96
2023-02-28T16:42:23.440Z,99824.26
2023-02-28T16:52:48.306Z,99836.14
2023-02-28T17:03:32.070Z,99843.92
2023-02-28T17:13:57.396Z,99850.05
2023-02-28T17:24:30.318Z,99858.79
2023-02-28T17:34:55.388Z,99867.02
2023-02-28T17:45:20.333Z,99867.95
2023-02-28T17:55:44.603Z,99868.96
2023-02-28T18:06:15.754Z,99865.44
2023-02-28T18:16:40.028Z,99871.61
2023-02-28T18:27:05.968Z,99869.44
2023-02-28T18:37:30.141Z,99869.75
2023-02-28T18:47:54.390Z,99871.45
2023-02-28T18:58:18.724Z,99872.21
2023-02-28T19:08:43.417Z,99870.23
2023-02-28T19:19:08.242Z,99867.45
2023-02-28T19:29:33.213Z,99865.22
2023-02-28T19:39:58.227Z,99866.63
2023-02-28T19:50:23.169Z,99867.52
2023-02-28T20:00:48.288Z,99868.45
2023-02-28T20:11:21.587Z,99867.31
2023-02-28T20:21:46.473Z,99862.86
2023-02-28T20:32:12.830Z,99867.23
2023-02-28T20:42:37.453Z,99868.79
2023-02-28T20:53:02.254Z,99870.16
2023-02-28T21:03:27.100Z,99864.17
2023-02-28T21:13:54.361Z,99856.56
2023-02-28T21:24:19.915Z,99856.61
2023-02-28T21:34:44.055Z,99856.25
2023-02-28T21:45:09.655Z,99860.61
2023-02-28T21:55:35.649Z,99868.09
2023-02-28T22:05:59.794Z,99865.78
2023-02-28T22:16:26.627Z,99865.09
2023-02-28T22:26:51.683Z,99865.48
2023-02-28T22:37:15.902Z,99871.45
2023-02-28T22:47:40.111Z,99873.52
2023-02-28T22:58:04.534Z,99887.23
2023-02-28T23:08:28.975Z,99889.70
2023-02-28T23:18:53.538Z,99891.98
2023-02-28T23:29:19.061Z,99880.82
2023-02-28T23:39:43.232Z,99884.35
2023-02-28T23:50:08.959Z,99892.80
